Time;durP1;ratioP1;P1;durP2;ratioP2;P2;SDS_P1;SDS_P2;PMS_P1;PMS_P2;Temp;Humidity;BMP_temperature;BMP_pressure;BME280_temperature;BME280_humidity;BME280_pressure;Samples;Min_cycle;Max_cycle;Signal;HPM_P1;HPM_P2
2023/03/31 00:01:16;;;;;;;2.93;2.73;;;10.40;99.90;;;;;;4955433;29;20236;-46
2023/03/31 00:03:43;;;;;;;5.30;2.33;;;10.40;99.90;;;;;;4955950;29;20246;-45
2023/03/31 00:06:16;;;;;;;4.03;2.80;;;10.30;99.90;;;;;;4955919;28;22027;-47
2023/03/31 00:08:44;;;;;;;2.57;2.37;;;10.30;99.90;;;;;;4956328;29;20693;-46
2023/03/31 00:11:11;;;;;;;1.97;1.50;;;10.40;99.90;;;;;;4955415;28;20248;-47
2023/03/31 00:13:39;;;;;;;1.80;1.70;;;10.40;99.90;;;;;;4955964;29;20217;-47
2023/03/31 00:16:09;;;;;;;3.13;1.83;;;10.40;99.90;;;;;;4954317;28;20290;-48
2023/03/31 00:18:39;;;;;;;3.00;1.50;;;10.40;99.90;;;;;;4954235;29;20717;-46
2023/03/31 00:21:08;;;;;;;3.20;1.93;;;10.40;99.90;;;;;;4953479;28;20290;-46
2023/03/31 00:23:35;;;;;;;1.47;1.43;;;10.30;99.90;;;;;;4954990;29;20730;-46
2023/03/31 00:26:02;;;;;;;2.17;2.00;;;10.20;99.90;;;;;;4955115;29;20716;-46
2023/03/31 00:28:29;;;;;;;3.20;2.33;;;10.20;99.90;;;;;;4955000;29;20657;-45
2023/03/31 00:31:02;;;;;;;2.23;1.97;;;10.20;99.90;;;;;;4954097;28;20211;-46
2023/03/31 00:33:30;;;;;;;2.63;1.93;;;10.20;99.90;;;;;;4955598;28;20209;-46
2023/03/31 00:36:00;;;;;;;2.87;1.83;;;10.10;99.90;;;;;;4952844;29;20258;-46
2023/03/31 00:38:29;;;;;;;2.43;2.03;;;10.10;99.90;;;;;;4955559;29;20227;-45
2023/03/31 00:40:56;;;;;;;2.97;2.70;;;10.10;99.90;;;;;;4955111;28;20203;-46
2023/03/31 00:43:29;;;;;;;3.40;1.93;;;10.10;99.90;;;;;;4955323;29;20223;-47
2023/03/31 00:46:05;;;;;;;2.27;2.07;;;10.10;99.90;;;;;;4954575;28;20203;-45
2023/03/31 00:48:36;;;;;;;1.97;1.87;;;10.10;99.90;;;;;;4955413;29;20223;-47
2023/03/31 00:51:06;;;;;;;1.77;1.67;;;10.10;99.90;;;;;;4953985;29;20704;-46
2023/03/31 00:53:35;;;;;;;1.17;1.10;;;10.10;99.90;;;;;;4950794;29;20203;-46
2023/03/31 00:56:07;;;;;;;2.57;1.63;;;10.10;99.90;;;;;;4953520;28;20207;-46
2023/03/31 00:58:34;;;;;;;1.33;1.23;;;10.10;99.90;;;;;;4954852;29;20227;-46
2023/03/31 01:01:03;;;;;;;3.97;2.10;;;10.10;99.90;;;;;;4954721;29;20735;-46
2023/03/31 01:03:32;;;;;;;3.17;1.73;;;10.20;99.90;;;;;;4954856;29;20227;-47
2023/03/31 01:06:04;;;;;;;1.83;1.73;;;10.20;99.90;;;;;;4952298;28;20656;-46
2023/03/31 01:08:35;;;;;;;2.73;1.37;;;10.20;99.90;;;;;;4954777;28;20315;-46
2023/03/31 01:11:06;;;;;;;3.90;1.40;;;10.20;99.90;;;;;;4954450;28;20272;-45
2023/03/31 01:13:34;;;;;;;2.40;2.20;;;10.20;99.90;;;;;;4954859;29;20197;-45
2023/03/31 01:16:02;;;;;;;3.00;2.00;;;10.20;99.90;;;;;;4953837;29;20619;-47
2023/03/31 01:18:33;;;;;;;2.73;1.70;;;10.10;99.90;;;;;;4954736;29;20291;-45
2023/03/31 01:21:46;;;;;;;2.40;2.23;;;10.00;99.90;;;;;;4951076;29;20214;-46
2023/03/31 01:24:46;;;;;;;2.60;2.13;;;10.00;99.90;;;;;;4950038;28;20203;-46
2023/03/31 01:27:32;;;;;;;1.80;1.70;;;9.90;99.90;;;;;;4954021;29;20265;-46
2023/03/31 01:30:48;;;;;;;1.53;1.40;;;9.90;99.90;;;;;;4952306;29;20205;-46
2023/03/31 01:33:43;;;;;;;1.20;1.20;;;9.90;99.90;;;;;;4954029;29;20203;-45
2023/03/31 01:36:33;;;;;;;2.67;1.93;;;9.90;99.90;;;;;;4952090;29;20676;-47
2023/03/31 01:39:31;;;;;;;2.13;2.03;;;10.00;99.90;;;;;;4950241;28;20223;-46
2023/03/31 01:42:06;;;;;;;3.47;1.70;;;10.00;99.90;;;;;;4955256;29;20216;-46
2023/03/31 01:44:41;;;;;;;2.00;1.90;;;9.90;99.90;;;;;;4952744;29;20262;-47
2023/03/31 01:47:17;;;;;;;2.63;1.83;;;9.90;99.90;;;;;;4954166;29;20231;-46
2023/03/31 01:49:51;;;;;;;3.50;2.90;;;9.90;99.90;;;;;;4953147;29;20237;-47
2023/03/31 01:52:23;;;;;;;3.87;2.67;;;9.90;99.90;;;;;;4953307;28;20203;-47
2023/03/31 01:54:55;;;;;;;4.13;3.83;;;9.80;99.90;;;;;;4952483;28;20208;-48
2023/03/31 01:57:29;;;;;;;4.57;4.20;;;9.80;99.90;;;;;;4954391;29;20227;-47
2023/03/31 02:00:03;;;;;;;5.13;4.53;;;9.80;99.90;;;;;;4952989;28;20201;-46
2023/03/31 02:02:36;;;;;;;5.47;3.30;;;9.80;99.90;;;;;;4954589;29;20231;-46
2023/03/31 02:05:09;;;;;;;3.70;3.40;;;9.80;99.90;;;;;;4946257;28;20207;-46
2023/03/31 02:07:41;;;;;;;3.73;3.40;;;9.80;99.90;;;;;;4953636;28;20261;-47
2023/03/31 02:10:11;;;;;;;3.40;3.10;;;9.80;99.90;;;;;;4953133;28;20208;-46
2023/03/31 02:12:42;;;;;;;2.63;2.50;;;9.80;99.90;;;;;;4950945;29;20195;-46
2023/03/31 02:15:13;;;;;;;3.13;1.67;;;9.80;99.90;;;;;;4952788;29;20208;-46
2023/03/31 02:17:44;;;;;;;2.07;1.77;;;9.90;99.90;;;;;;4953623;28;20317;-46
2023/03/31 02:20:15;;;;;;;2.07;1.93;;;9.90;99.90;;;;;;4953204;29;20326;-48
2023/03/31 02:22:45;;;;;;;4.30;1.70;;;10.00;99.90;;;;;;4952269;28;20251;-46
2023/03/31 02:25:15;;;;;;;3.07;1.50;;;10.00;99.90;;;;;;4953717;29;20223;-47
2023/03/31 02:27:49;;;;;;;1.73;1.63;;;10.00;99.90;;;;;;4953392;29;20235;-46
2023/03/31 02:30:16;;;;;;;1.53;1.43;;;10.00;99.90;;;;;;4953083;29;20272;-46
2023/03/31 02:32:45;;;;;;;1.40;1.17;;;10.00;99.90;;;;;;4950460;28;20570;-47
2023/03/31 02:35:15;;;;;;;1.60;0.83;;;10.00;99.90;;;;;;4952011;29;20628;-46
2023/03/31 02:37:43;;;;;;;2.30;1.00;;;10.00;99.90;;;;;;4952791;29;20225;-46
2023/03/31 02:40:13;;;;;;;1.90;1.73;;;10.00;99.90;;;;;;4952963;28;20270;-44
2023/03/31 02:42:41;;;;;;;1.67;1.20;;;10.10;99.90;;;;;;4953328;29;20271;-44
2023/03/31 02:45:44;;;;;;;2.50;1.30;;;10.10;99.90;;;;;;4953432;28;20259;-50
2023/03/31 02:48:15;;;;;;;1.90;1.10;;;10.10;99.90;;;;;;4947233;28;20579;-47
2023/03/31 02:51:23;;;;;;;1.87;1.10;;;10.10;99.90;;;;;;4952262;29;20266;-46
2023/03/31 02:54:15;;;;;;;1.53;1.43;;;10.10;99.90;;;;;;4951986;28;20199;-45
2023/03/31 02:57:00;;;;;;;2.97;1.50;;;10.10;99.90;;;;;;4933356;29;20294;-46
2023/03/31 02:59:39;;;;;;;2.40;1.67;;;10.20;99.90;;;;;;4953052;29;20203;-46
2023/03/31 03:02:20;;;;;;;2.90;1.50;;;10.10;99.90;;;;;;4950362;28;20256;-46
2023/03/31 03:05:12;;;;;;;1.50;1.50;;;10.00;99.90;;;;;;4951541;28;20206;-45
2023/03/31 03:07:49;;;;;;;1.53;1.00;;;10.00;99.90;;;;;;4991646;22;20652;-48
2023/03/31 03:10:25;;;;;;;1.80;1.33;;;9.90;99.90;;;;;;5008160;28;20209;-48
2023/03/31 03:12:58;;;;;;;1.57;1.50;;;9.90;99.90;;;;;;5009726;28;20609;-49
2023/03/31 03:15:30;;;;;;;3.60;1.97;;;9.90;99.90;;;;;;5009268;28;20294;-47
2023/03/31 03:18:02;;;;;;;3.77;2.07;;;10.00;99.90;;;;;;5017046;28;20272;-47
2023/03/31 03:20:32;;;;;;;2.10;1.90;;;10.00;99.90;;;;;;5028466;28;20765;-48
2023/03/31 03:22:59;;;;;;;4.37;1.80;;;10.00;99.90;;;;;;5026161;28;20250;-48
2023/03/31 03:25:29;;;;;;;2.50;1.67;;;10.00;99.90;;;;;;5027226;28;20251;-47
2023/03/31 03:27:56;;;;;;;2.00;1.90;;;10.00;99.90;;;;;;5029977;28;20220;-48
2023/03/31 03:30:23;;;;;;;3.17;1.60;;;9.90;99.90;;;;;;5028381;28;20212;-47
2023/03/31 03:32:50;;;;;;;2.63;1.37;;;9.90;99.90;;;;;;5029044;28;20269;-48
2023/03/31 03:35:18;;;;;;;1.70;1.60;;;9.90;99.90;;;;;;5032914;28;20236;-49
2023/03/31 03:37:45;;;;;;;2.27;2.07;;;9.90;99.90;;;;;;5033111;28;20284;-48
2023/03/31 03:40:12;;;;;;;2.17;2.07;;;9.90;99.90;;;;;;5032651;28;20355;-49
2023/03/31 03:42:39;;;;;;;3.67;2.23;;;9.80;99.90;;;;;;5033091;28;20212;-48
2023/03/31 03:45:07;;;;;;;4.30;1.57;;;9.70;99.90;;;;;;5034014;28;20337;-48
2023/03/31 03:47:34;;;;;;;3.43;2.03;;;9.60;99.90;;;;;;5031316;28;20237;-47
2023/03/31 03:50:02;;;;;;;1.77;1.67;;;9.50;99.90;;;;;;5032836;28;20208;-48
2023/03/31 03:52:30;;;;;;;2.40;2.20;;;9.50;99.90;;;;;;5032947;28;20209;-49
2023/03/31 03:54:57;;;;;;;2.97;2.33;;;9.50;99.90;;;;;;5033740;28;20263;-48
2023/03/31 03:57:25;;;;;;;2.57;2.00;;;9.40;99.90;;;;;;5033481;28;20218;-48
2023/03/31 03:59:52;;;;;;;1.83;1.73;;;9.40;99.90;;;;;;5033144;28;20228;-48
2023/03/31 04:02:19;;;;;;;2.63;2.47;;;9.50;99.90;;;;;;5031614;28;20200;-48
2023/03/31 04:04:46;;;;;;;4.80;2.73;;;9.40;99.90;;;;;;5031139;28;20203;-48
2023/03/31 04:07:13;;;;;;;2.33;2.03;;;9.40;99.90;;;;;;5031934;28;20204;-48
2023/03/31 04:09:41;;;;;;;4.23;2.13;;;9.50;99.90;;;;;;5034051;28;20209;-48
2023/03/31 04:12:08;;;;;;;4.90;2.57;;;9.50;99.90;;;;;;5033961;28;20202;-48
2023/03/31 04:14:35;;;;;;;2.07;1.87;;;9.50;99.90;;;;;;5033839;28;20258;-48
2023/03/31 04:17:02;;;;;;;1.77;1.67;;;9.50;99.90;;;;;;5034618;28;20578;-47
2023/03/31 04:19:30;;;;;;;2.20;1.77;;;9.50;99.90;;;;;;5032131;28;20204;-47
2023/03/31 04:22:01;;;;;;;1.60;1.50;;;9.60;99.90;;;;;;5030967;28;20595;-47
2023/03/31 04:24:31;;;;;;;4.27;1.60;;;9.50;99.90;;;;;;5031876;28;20766;-48
2023/03/31 04:27:01;;;;;;;2.93;1.43;;;9.50;99.90;;;;;;5032433;28;20201;-48
2023/03/31 04:29:32;;;;;;;4.27;1.90;;;9.50;99.90;;;;;;5034042;28;20219;-48
2023/03/31 04:31:59;;;;;;;1.60;1.60;;;9.50;99.90;;;;;;5032773;28;20205;-49
2023/03/31 04:34:33;;;;;;;1.70;1.23;;;9.50;99.90;;;;;;5033957;28;20259;-48
2023/03/31 04:37:01;;;;;;;3.57;2.07;;;9.50;99.90;;;;;;5033932;28;20638;-48
2023/03/31 04:39:30;;;;;;;4.37;1.53;;;9.50;99.90;;;;;;5033028;28;20552;-48
2023/03/31 04:41:58;;;;;;;3.30;1.47;;;9.50;99.90;;;;;;5031505;28;20200;-48
2023/03/31 04:44:27;;;;;;;1.40;1.30;;;9.50;99.90;;;;;;5031429;28;20337;-49
2023/03/31 04:46:54;;;;;;;2.27;1.67;;;9.50;99.90;;;;;;5033624;28;20207;-48
2023/03/31 04:49:21;;;;;;;2.50;1.57;;;9.50;99.90;;;;;;5033495;28;20227;-49
2023/03/31 04:51:48;;;;;;;1.23;1.10;;;9.60;99.90;;;;;;5031640;28;20247;-48
2023/03/31 04:54:15;;;;;;;2.40;1.53;;;9.60;99.90;;;;;;5032135;28;20204;-49
2023/03/31 04:56:42;;;;;;;2.27;0.83;;;9.60;99.90;;;;;;5031405;28;20197;-47
2023/03/31 04:59:09;;;;;;;3.63;1.17;;;9.60;99.90;;;;;;5033471;28;20290;-49
2023/03/31 05:01:38;;;;;;;0.97;0.97;;;9.70;99.90;;;;;;5031121;28;20201;-48
2023/03/31 05:04:05;;;;;;;3.00;1.20;;;9.70;99.90;;;;;;5033527;28;20224;-48
2023/03/31 05:06:33;;;;;;;2.70;1.20;;;9.80;99.90;;;;;;5032437;28;20617;-48
2023/03/31 05:09:00;;;;;;;4.10;1.20;;;9.90;99.90;;;;;;5030956;28;20258;-48
2023/03/31 05:11:27;;;;;;;1.33;0.97;;;9.90;99.90;;;;;;5027403;28;20250;-48
2023/03/31 05:13:54;;;;;;;4.67;1.60;;;9.90;99.90;;;;;;5031903;28;20204;-47
2023/03/31 05:16:22;;;;;;;9.67;1.97;;;9.90;99.90;;;;;;5032254;28;20267;-48
2023/03/31 05:18:50;;;;;;;2.23;2.03;;;9.90;99.90;;;;;;5029950;28;20274;-48
2023/03/31 05:21:20;;;;;;;2.97;1.50;;;10.00;99.90;;;;;;5029402;28;20670;-49
2023/03/31 05:23:48;;;;;;;3.30;1.70;;;9.90;99.90;;;;;;5027701;28;20233;-48
2023/03/31 05:26:15;;;;;;;1.53;1.13;;;10.00;99.90;;;;;;5031501;28;20323;-47
2023/03/31 05:28:42;;;;;;;2.00;0.77;;;10.10;99.90;;;;;;5026009;28;20262;-48
2023/03/31 05:31:11;;;;;;;1.50;1.00;;;10.20;99.90;;;;;;5028584;28;20213;-48
2023/03/31 05:33:40;;;;;;;1.70;1.23;;;10.20;99.90;;;;;;5031176;28;20306;-48
2023/03/31 05:36:12;;;;;;;3.20;1.40;;;10.40;99.90;;;;;;5031574;28;20201;-49
2023/03/31 05:38:39;;;;;;;2.13;1.70;;;10.40;99.90;;;;;;5031576;28;20595;-48
2023/03/31 05:41:08;;;;;;;4.63;2.10;;;10.30;99.90;;;;;;5027536;28;20208;-48
2023/03/31 05:43:35;;;;;;;3.00;1.83;;;10.20;99.90;;;;;;5030383;28;20249;-48
2023/03/31 05:46:02;;;;;;;3.33;2.33;;;10.30;99.90;;;;;;5030376;28;20199;-49
2023/03/31 05:48:29;;;;;;;2.13;2.03;;;10.40;99.90;;;;;;5027664;28;20222;-48
2023/03/31 05:50:57;;;;;;;3.67;2.40;;;10.40;99.90;;;;;;5026738;28;20738;-49
2023/03/31 05:53:26;;;;;;;5.90;2.40;;;10.50;99.90;;;;;;5030122;28;20205;-49
2023/03/31 05:55:58;;;;;;;3.47;2.03;;;10.50;99.90;;;;;;5029826;28;20216;-48
2023/03/31 05:58:25;;;;;;;2.87;1.70;;;10.50;99.90;;;;;;5031063;28;20235;-49
2023/03/31 06:01:01;;;;;;;1.63;1.50;;;10.60;99.90;;;;;;5030307;28;20196;-49
2023/03/31 06:03:28;;;;;;;1.30;1.30;;;10.70;99.90;;;;;;5027512;28;20212;-49
2023/03/31 06:05:55;;;;;;;1.80;1.07;;;10.80;99.90;;;;;;5030492;28;20208;-49
2023/03/31 06:08:22;;;;;;;6.43;1.67;;;10.80;99.90;;;;;;5030597;28;20234;-48
2023/03/31 06:10:51;;;;;;;2.07;0.97;;;10.90;99.90;;;;;;5028997;28;20201;-48
2023/03/31 06:13:19;;;;;;;1.90;1.10;;;11.00;99.90;;;;;;5029733;28;20205;-48
2023/03/31 06:15:53;;;;;;;2.43;1.10;;;11.00;99.90;;;;;;5027724;28;20204;-49
2023/03/31 06:18:20;;;;;;;1.10;0.80;;;11.10;99.90;;;;;;5027827;28;20306;-49
2023/03/31 06:20:47;;;;;;;2.20;1.20;;;11.20;99.90;;;;;;5029575;28;20256;-49
2023/03/31 06:23:14;;;;;;;2.20;1.00;;;11.30;99.90;;;;;;5026529;28;20220;-48
2023/03/31 06:25:41;;;;;;;3.03;0.90;;;11.30;99.90;;;;;;5030539;28;20246;-48
2023/03/31 06:28:09;;;;;;;1.13;0.90;;;11.40;99.90;;;;;;5014004;28;20234;-48
2023/03/31 06:30:36;;;;;;;0.60;0.60;;;11.60;99.90;;;;;;5026795;28;20217;-49
2023/03/31 06:33:07;;;;;;;1.10;0.80;;;11.70;99.90;;;;;;5021197;28;20198;-49
2023/03/31 06:35:38;;;;;;;1.37;0.87;;;11.80;99.90;;;;;;5026995;28;20633;-49
2023/03/31 06:38:07;;;;;;;2.00;0.60;;;12.00;99.90;;;;;;5031047;28;20251;-49
2023/03/31 06:40:35;;;;;;;1.03;0.53;;;12.10;99.90;;;;;;5030087;28;20309;-49
2023/03/31 06:43:05;;;;;;;2.97;0.50;;;12.20;99.90;;;;;;5029730;28;20212;-49
2023/03/31 06:45:33;;;;;;;1.03;0.67;;;12.30;99.90;;;;;;5029320;28;20205;-49
2023/03/31 06:48:03;;;;;;;0.53;0.53;;;12.40;99.90;;;;;;5026854;28;20213;-49
2023/03/31 06:50:30;;;;;;;1.87;0.80;;;12.40;99.90;;;;;;5028250;28;21011;-49
2023/03/31 06:52:57;;;;;;;1.23;1.00;;;12.40;99.90;;;;;;5027616;28;20202;-48
2023/03/31 06:55:24;;;;;;;1.67;0.67;;;12.50;99.90;;;;;;5029081;28;20197;-48
2023/03/31 06:57:51;;;;;;;0.40;0.40;;;12.60;99.90;;;;;;5028181;28;20665;-49
2023/03/31 07:00:19;;;;;;;2.00;0.50;;;12.60;99.90;;;;;;5025520;28;20205;-49
2023/03/31 07:02:47;;;;;;;1.30;0.87;;;12.70;99.90;;;;;;5031626;28;20252;-50
2023/03/31 07:05:14;;;;;;;2.67;1.00;;;12.90;99.90;;;;;;5029745;28;20221;-49
2023/03/31 07:07:41;;;;;;;2.47;1.03;;;13.00;99.90;;;;;;5029521;28;20225;-49
2023/03/31 07:10:09;;;;;;;1.20;1.10;;;13.30;99.90;;;;;;5029244;28;20656;-49
2023/03/31 07:12:36;;;;;;;1.80;0.80;;;13.50;99.90;;;;;;5028832;28;20197;-49
2023/03/31 07:15:03;;;;;;;2.70;0.90;;;13.70;99.90;;;;;;5029557;28;20257;-48
2023/03/31 07:17:30;;;;;;;1.07;0.80;;;13.70;99.90;;;;;;5026081;28;20231;-48
2023/03/31 07:19:59;;;;;;;1.00;1.00;;;13.80;99.90;;;;;;5027230;28;20254;-49
2023/03/31 07:22:26;;;;;;;0.90;0.90;;;13.70;99.90;;;;;;5029859;28;20276;-49
2023/03/31 07:24:53;;;;;;;0.40;0.40;;;13.80;99.90;;;;;;5028478;28;20234;-49
2023/03/31 07:27:20;;;;;;;0.80;0.57;;;13.80;99.90;;;;;;5029352;28;20201;-50
2023/03/31 07:29:47;;;;;;;3.07;0.83;;;13.80;99.90;;;;;;5025801;28;20200;-51
2023/03/31 07:32:14;;;;;;;1.90;1.37;;;13.80;99.90;;;;;;5029292;28;20233;-49
2023/03/31 07:34:41;;;;;;;1.23;0.50;;;13.70;99.90;;;;;;5030548;28;20620;-49
2023/03/31 07:37:09;;;;;;;1.73;0.43;;;13.70;99.90;;;;;;5029762;28;20734;-49
2023/03/31 07:39:36;;;;;;;1.07;0.60;;;13.60;99.90;;;;;;5029754;28;20199;-49
2023/03/31 07:42:03;;;;;;;3.23;2.40;;;13.40;99.90;;;;;;5026931;28;20285;-48
2023/03/31 07:44:32;;;;;;;4.80;2.80;;;13.40;99.90;;;;;;5030813;28;20282;-49
2023/03/31 07:47:03;;;;;;;4.97;3.63;;;13.30;99.90;;;;;;5026754;28;20248;-49
2023/03/31 07:49:30;;;;;;;7.10;3.40;;;13.20;99.90;;;;;;5030511;28;20203;-47
2023/03/31 07:51:57;;;;;;;4.57;3.50;;;13.00;99.90;;;;;;5028225;28;20206;-48
2023/03/31 07:54:26;;;;;;;3.80;3.40;;;12.90;99.90;;;;;;5030066;28;20209;-49
2023/03/31 07:56:53;;;;;;;3.10;2.83;;;12.70;99.90;;;;;;5026210;28;20271;-48
2023/03/31 07:59:20;;;;;;;3.60;3.30;;;12.60;99.90;;;;;;5029912;28;20707;-47
2023/03/31 08:01:47;;;;;;;5.00;3.23;;;12.40;99.90;;;;;;5028640;28;20214;-49
2023/03/31 08:04:14;;;;;;;3.83;2.63;;;12.30;99.90;;;;;;5029846;28;20287;-49
2023/03/31 08:06:41;;;;;;;3.80;3.50;;;12.20;99.90;;;;;;5029109;28;20322;-48
2023/03/31 08:09:08;;;;;;;7.50;4.33;;;12.10;99.90;;;;;;5027334;28;20232;-49
2023/03/31 08:11:36;;;;;;;4.77;3.63;;;12.00;99.90;;;;;;5028084;28;20255;-49
2023/03/31 08:14:03;;;;;;;4.10;3.80;;;12.00;99.90;;;;;;5026243;28;20248;-49
2023/03/31 08:16:31;;;;;;;4.47;3.60;;;12.00;99.90;;;;;;5028518;28;20251;-49
2023/03/31 08:18:58;;;;;;;4.23;3.77;;;12.00;99.90;;;;;;5029389;28;20279;-48
2023/03/31 08:21:25;;;;;;;3.63;3.20;;;12.00;99.90;;;;;;5032643;28;20259;-49
2023/03/31 08:23:54;;;;;;;4.10;3.80;;;12.00;99.90;;;;;;5033023;28;20600;-48
2023/03/31 08:26:23;;;;;;;5.87;3.87;;;12.00;99.90;;;;;;5030964;28;20292;-48
2023/03/31 08:28:52;;;;;;;5.40;4.90;;;12.00;99.90;;;;;;5030706;28;20236;-49
2023/03/31 08:31:24;;;;;;;5.10;4.73;;;12.10;99.90;;;;;;5031976;28;20199;-48
2023/03/31 08:33:51;;;;;;;6.07;5.57;;;12.20;99.90;;;;;;5032316;28;20206;-48
2023/03/31 08:36:18;;;;;;;6.50;5.37;;;12.30;99.90;;;;;;5031625;28;20204;-49
2023/03/31 08:38:46;;;;;;;7.27;6.20;;;12.50;99.90;;;;;;5031019;28;20655;-49
2023/03/31 08:41:27;;;;;;;7.17;6.43;;;12.60;99.90;;;;;;5032361;28;20249;-48
2023/03/31 08:43:57;;;;;;;7.23;6.50;;;12.70;99.90;;;;;;5031702;28;20229;-49
2023/03/31 08:46:25;;;;;;;7.67;6.43;;;12.90;99.90;;;;;;5032799;28;20256;-48
2023/03/31 08:48:55;;;;;;;7.30;5.73;;;12.90;99.90;;;;;;5028831;28;20699;-48
2023/03/31 08:51:28;;;;;;;4.97;4.57;;;12.90;99.90;;;;;;5029964;28;20254;-48
2023/03/31 08:54:01;;;;;;;7.83;7.10;;;12.90;99.90;;;;;;5032372;28;20209;-48
2023/03/31 08:56:30;;;;;;;4.23;3.90;;;12.90;99.90;;;;;;5032348;28;20409;-48
2023/03/31 08:59:01;;;;;;;6.13;4.60;;;12.90;99.90;;;;;;5031277;28;20225;-48
2023/03/31 09:01:37;;;;;;;10.90;8.97;;;13.00;99.90;;;;;;5029619;28;20202;-48
2023/03/31 09:04:26;;;;;;;3.87;3.30;;;13.00;99.90;;;;;;5030837;28;20224;-49
2023/03/31 09:07:01;;;;;;;2.67;2.47;;;12.90;99.90;;;;;;5028886;28;20210;-48
2023/03/31 09:09:38;;;;;;;3.07;2.70;;;12.90;99.90;;;;;;5011017;23;20347;-46
2023/03/31 09:12:10;;;;;;;3.43;2.83;;;12.80;99.90;;;;;;4992501;28;20204;-47
2023/03/31 09:14:41;;;;;;;2.90;2.73;;;12.80;99.90;;;;;;4993372;28;20735;-48
2023/03/31 09:17:18;;;;;;;2.53;2.33;;;12.80;99.90;;;;;;4990945;28;20214;-47
2023/03/31 09:19:52;;;;;;;4.10;3.47;;;12.80;99.90;;;;;;5011155;28;20279;-48
2023/03/31 09:22:24;;;;;;;3.60;2.50;;;12.90;99.90;;;;;;5012586;28;20252;-47
2023/03/31 09:24:58;;;;;;;3.10;2.47;;;13.10;99.90;;;;;;5013760;28;20229;-48
2023/03/31 09:27:30;;;;;;;2.17;1.97;;;13.40;99.90;;;;;;5008703;28;20204;-47
2023/03/31 09:30:03;;;;;;;3.20;3.00;;;13.80;99.90;;;;;;5012441;28;20322;-46
2023/03/31 09:32:31;;;;;;;3.20;2.83;;;13.90;99.90;;;;;;5010606;28;20299;-47
2023/03/31 09:35:01;;;;;;;4.03;2.03;;;13.90;99.90;;;;;;5012245;28;20191;-47
2023/03/31 09:37:32;;;;;;;2.50;2.30;;;13.90;99.90;;;;;;5011966;28;20206;-47
2023/03/31 09:40:01;;;;;;;3.40;2.13;;;13.90;99.90;;;;;;5005631;28;20292;-47
2023/03/31 09:42:28;;;;;;;1.77;1.63;;;13.90;99.90;;;;;;5009986;28;20207;-48
2023/03/31 09:44:55;;;;;;;2.97;2.77;;;13.90;99.90;;;;;;5012263;28;20241;-47
2023/03/31 09:47:29;;;;;;;4.37;2.57;;;14.10;99.90;;;;;;5010845;28;20207;-47
2023/03/31 09:49:56;;;;;;;3.73;3.00;;;14.20;99.90;;;;;;5012542;28;20206;-46
2023/03/31 09:52:29;;;;;;;2.37;2.17;;;14.10;99.90;;;;;;5014919;28;20253;-48
2023/03/31 09:55:00;;;;;;;5.07;3.47;;;13.90;99.90;;;;;;5026265;28;20201;-47
2023/03/31 09:57:29;;;;;;;4.07;3.40;;;13.90;99.90;;;;;;5006779;28;20211;-46
2023/03/31 10:00:06;;;;;;;3.17;2.97;;;13.80;99.90;;;;;;5012202;28;20213;-48
2023/03/31 10:02:40;;;;;;;7.57;3.90;;;13.80;99.90;;;;;;5010293;28;20210;-46
2023/03/31 10:05:18;;;;;;;2.83;2.63;;;13.70;99.90;;;;;;5012987;28;20241;-47
2023/03/31 10:07:45;;;;;;;3.87;3.50;;;13.70;99.90;;;;;;5012082;28;20236;-47
2023/03/31 10:10:33;;;;;;;4.00;3.47;;;13.60;99.90;;;;;;5006212;28;20215;-46
2023/03/31 10:13:04;;;;;;;4.47;3.77;;;13.40;99.90;;;;;;5004920;28;20202;-47
2023/03/31 10:15:31;;;;;;;4.30;3.57;;;13.40;99.90;;;;;;5014376;28;20205;-46
2023/03/31 10:18:04;;;;;;;5.00;2.53;;;13.30;99.90;;;;;;5013113;28;20230;-48
2023/03/31 10:20:38;;;;;;;2.57;2.37;;;13.30;99.90;;;;;;5010554;28;20210;-47
2023/03/31 10:23:16;;;;;;;3.30;2.70;;;13.30;99.90;;;;;;5004408;28;20197;-47
2023/03/31 10:25:44;;;;;;;5.57;2.53;;;13.30;99.90;;;;;;5010484;28;20280;-46
2023/03/31 10:28:15;;;;;;;2.40;2.20;;;13.30;99.90;;;;;;5012609;28;20235;-46
2023/03/31 10:30:48;;;;;;;2.27;2.07;;;13.20;99.90;;;;;;5009717;28;20230;-47
2023/03/31 10:33:19;;;;;;;3.80;3.20;;;13.10;99.90;;;;;;5011158;28;20256;-45
2023/03/31 10:35:49;;;;;;;3.10;2.30;;;13.10;99.90;;;;;;5010938;28;20255;-47
2023/03/31 10:38:24;;;;;;;2.27;2.10;;;12.90;99.90;;;;;;5012708;28;20226;-47
2023/03/31 10:40:53;;;;;;;3.53;2.10;;;12.90;99.90;;;;;;5011313;28;20629;-49
2023/03/31 10:43:25;;;;;;;2.97;2.77;;;12.90;99.90;;;;;;5008598;28;20261;-46
2023/03/31 10:45:53;;;;;;;4.50;3.10;;;12.90;99.90;;;;;;5012083;28;20215;-47
2023/03/31 10:48:25;;;;;;;6.27;3.17;;;13.00;99.90;;;;;;5012489;28;20236;-47
2023/03/31 10:50:53;;;;;;;4.83;3.43;;;13.10;99.90;;;;;;5011212;28;20220;-47
2023/03/31 10:53:20;;;;;;;4.40;2.77;;;13.30;99.90;;;;;;5011827;28;20707;-45
2023/03/31 10:55:58;;;;;;;5.60;3.77;;;13.50;99.90;;;;;;5011750;28;20206;-47
2023/03/31 10:58:42;;;;;;;4.27;3.57;;;13.70;99.90;;;;;;5007815;28;20223;-47
2023/03/31 11:01:25;;;;;;;4.10;3.40;;;13.80;99.90;;;;;;5013584;28;20241;-46
2023/03/31 11:04:13;;;;;;;3.43;3.13;;;13.90;99.90;;;;;;5012127;28;20210;-47
2023/03/31 11:06:52;;;;;;;2.93;2.77;;;14.20;99.90;;;;;;5009468;28;20317;-46
2023/03/31 11:09:35;;;;;;;3.10;2.97;;;14.50;99.90;;;;;;5011989;28;20235;-47
2023/03/31 11:12:12;;;;;;;3.53;3.13;;;14.60;99.90;;;;;;5011668;28;20203;-47
2023/03/31 11:14:49;;;;;;;4.23;2.63;;;14.70;99.90;;;;;;5010234;28;20262;-48
2023/03/31 11:17:29;;;;;;;4.83;3.10;;;14.60;99.90;;;;;;5011844;28;20619;-48
2023/03/31 11:20:05;;;;;;;4.80;2.43;;;14.80;99.90;;;;;;5012354;28;20260;-46
2023/03/31 11:22:44;;;;;;;2.17;2.07;;;15.40;99.90;;;;;;5011437;28;20206;-47
2023/03/31 11:25:20;;;;;;;2.53;2.20;;;15.70;99.90;;;;;;5010267;28;20751;-47
2023/03/31 11:28:04;;;;;;;4.00;3.23;;;15.70;99.90;;;;;;5011903;28;20214;-47
2023/03/31 11:30:36;;;;;;;3.97;2.87;;;15.40;99.90;;;;;;5011321;28;20580;-48
2023/03/31 11:33:25;;;;;;;3.83;2.67;;;15.00;99.90;;;;;;5011897;28;20264;-46
2023/03/31 11:36:05;;;;;;;4.27;2.87;;;14.60;99.90;;;;;;5010516;28;20203;-48
2023/03/31 11:39:03;;;;;;;2.93;2.73;;;14.70;99.90;;;;;;5011821;28;20226;-48
2023/03/31 11:41:36;;;;;;;2.10;2.00;;;14.90;99.90;;;;;;5005784;28;20207;-45
2023/03/31 11:44:06;;;;;;;2.60;2.40;;;15.20;99.90;;;;;;4992135;28;20580;-48
2023/03/31 11:46:40;;;;;;;2.57;2.47;;;15.70;99.90;;;;;;5008319;28;20227;-47
2023/03/31 11:49:14;;;;;;;2.40;2.23;;;16.10;99.90;;;;;;5010495;28;20596;-46
2023/03/31 11:51:48;;;;;;;2.67;2.57;;;16.30;99.90;;;;;;5010986;28;20246;-47
2023/03/31 11:54:20;;;;;;;3.23;3.03;;;16.70;99.90;;;;;;5012168;28;20253;-47
2023/03/31 11:56:48;;;;;;;2.23;2.13;;;17.00;99.90;;;;;;5013109;28;20195;-46
2023/03/31 11:59:18;;;;;;;2.60;2.50;;;17.30;99.90;;;;;;5015134;28;20713;-48
2023/03/31 12:01:49;;;;;;;1.37;1.20;;;17.70;99.90;;;;;;5014817;28;20203;-47
2023/03/31 12:04:25;;;;;;;1.67;0.87;;;17.40;99.90;;;;;;5015639;28;20218;-48
2023/03/31 12:07:01;;;;;;;1.50;0.70;;;15.60;99.90;;;;;;5010716;28;21414;-47
2023/03/31 12:09:33;;;;;;;1.70;0.70;;;15.00;99.90;;;;;;5013146;28;20234;-47
2023/03/31 12:12:05;;;;;;;2.30;0.73;;;14.80;99.90;;;;;;5014267;28;20198;-47
2023/03/31 12:14:38;;;;;;;3.00;0.60;;;14.80;99.90;;;;;;5014088;28;20199;-47
2023/03/31 12:17:10;;;;;;;1.37;0.90;;;14.50;99.90;;;;;;5013618;28;20211;-48
2023/03/31 12:19:46;;;;;;;1.40;0.50;;;14.50;99.90;;;;;;5012694;28;20592;-48
2023/03/31 12:22:19;;;;;;;2.53;0.50;;;14.50;99.90;;;;;;5012785;28;20672;-47
2023/03/31 12:24:46;;;;;;;4.30;0.80;;;14.50;99.90;;;;;;5012672;28;20199;-47
2023/03/31 12:27:20;;;;;;;2.20;0.70;;;14.50;99.90;;;;;;5012199;28;20619;-48
2023/03/31 12:29:55;;;;;;;1.63;0.80;;;14.60;99.90;;;;;;5014309;28;20266;-47
2023/03/31 12:32:27;;;;;;;3.27;1.50;;;14.80;99.90;;;;;;5009432;28;20195;-47
2023/03/31 12:34:59;;;;;;;1.73;1.37;;;15.10;99.90;;;;;;5012657;28;20198;-47
2023/03/31 12:38:11;;;;;;;2.20;1.10;;;15.40;99.90;;;;;;5011932;28;20222;-47
2023/03/31 12:40:58;;;;;;;3.90;1.60;;;15.90;99.90;;;;;;4967130;28;20195;-47
2023/03/31 12:43:47;;;;;;;4.03;2.20;;;16.50;99.90;;;;;;5016858;28;20199;-47
2023/03/31 12:46:26;;;;;;;2.17;2.00;;;17.00;99.90;;;;;;4996522;28;20219;-46
2023/03/31 12:49:05;;;;;;;3.33;2.30;;;17.30;99.90;;;;;;5012415;28;20222;-46
2023/03/31 12:51:50;;;;;;;4.20;2.53;;;17.20;99.90;;;;;;5009046;28;20203;-47
2023/03/31 12:54:36;;;;;;;2.10;1.63;;;17.00;99.90;;;;;;5012959;28;20627;-46
2023/03/31 12:57:16;;;;;;;2.63;1.23;;;16.60;99.90;;;;;;5012953;28;20209;-46
2023/03/31 12:59:43;;;;;;;1.80;1.53;;;16.30;99.90;;;;;;5011079;28;20600;-48
2023/03/31 13:02:25;;;;;;;2.60;1.57;;;16.10;99.90;;;;;;5012392;28;20261;-47
2023/03/31 13:04:52;;;;;;;5.63;1.80;;;15.60;99.90;;;;;;5008543;28;20665;-45
2023/03/31 13:07:37;;;;;;;1.93;1.50;;;15.30;99.90;;;;;;5011725;28;20219;-47
2023/03/31 13:10:26;;;;;;;2.13;1.70;;;14.90;99.90;;;;;;5009520;28;20253;-45
2023/03/31 13:13:14;;;;;;;2.87;1.77;;;14.90;99.90;;;;;;5011045;28;20202;-47